createdAt,value
2019-03-22T15:02:56.046Z,101622.61
2019-03-22T15:15:59.372Z,101562.14
2019-03-22T15:19:20.627Z,101556.20
2019-03-22T15:22:42.544Z,101559.27
2019-03-22T15:26:06.042Z,101549.78
2019-03-22T15:32:18.507Z,101544.47
2019-03-22T15:35:38.364Z,101537.10
2019-03-22T15:38:43.488Z,101539.70
2019-03-22T15:41:46.877Z,101526.92
2019-03-22T15:44:50.308Z,101530.32
2019-03-22T15:47:53.634Z,101525.10
2019-03-22T15:50:57.008Z,101528.41
2019-03-22T15:54:00.389Z,101522.98
2019-03-22T15:57:03.891Z,101514.91
2019-03-22T16:00:18.508Z,101514.74
2019-03-22T16:03:21.867Z,101511.20
2019-03-22T16:06:25.249Z,101508.55
2019-03-22T16:09:28.618Z,101516.78
2019-03-22T16:12:32.013Z,101509.17
2019-03-22T16:15:35.388Z,101513.28
2019-03-22T16:18:38.771Z,101523.23
2019-03-22T16:21:42.155Z,101517.11
2019-03-22T16:24:45.836Z,101524.21
2019-03-22T16:27:49.241Z,101522.59
2019-03-22T16:30:52.630Z,101525.77
2019-03-22T16:33:56.034Z,101525.48
2019-03-22T16:36:59.896Z,101524.09
2019-03-22T16:40:04.761Z,101528.88
2019-03-22T16:43:08.120Z,101528.33
2019-03-22T16:46:11.610Z,101529.14
2019-03-22T16:49:15.997Z,101531.81
2019-03-22T16:52:19.376Z,101531.53
2019-03-22T16:55:24.047Z,101538.15
2019-03-22T16:58:27.742Z,101535.36
2019-03-22T17:01:31.167Z,101531.73
2019-03-22T17:04:34.575Z,101534.86
2019-03-22T17:07:37.950Z,101541.95
2019-03-22T17:10:41.668Z,101539.19
2019-03-22T17:13:45.046Z,101539.43
2019-03-22T17:16:48.778Z,101542.31
2019-03-22T17:19:52.146Z,101544.52
2019-03-22T17:22:55.544Z,101542.61
2019-03-22T17:25:58.922Z,101541.00
2019-03-22T17:29:02.302Z,101546.02
2019-03-22T17:32:05.773Z,101539.63
2019-03-22T17:35:10.097Z,101541.83
2019-03-22T17:38:13.537Z,101550.47
2019-03-22T17:41:16.967Z,101545.84
2019-03-22T17:44:20.982Z,101548.52
2019-03-22T17:47:24.361Z,101558.00
2019-03-22T17:50:28.094Z,101549.87
2019-03-22T17:53:31.537Z,101554.80
2019-03-22T17:56:34.913Z,101557.98
2019-03-22T17:59:38.291Z,101559.46
2019-03-22T18:02:41.745Z,101558.13
2019-03-22T18:05:45.122Z,101561.92
2019-03-22T18:08:48.513Z,101564.27
2019-03-22T18:11:51.885Z,101560.43
2019-03-22T18:14:55.268Z,101560.36
2019-03-22T18:17:58.989Z,101571.92
2019-03-22T18:21:02.373Z,101569.58
2019-03-22T18:24:05.757Z,101564.48
2019-03-22T18:27:09.135Z,101574.45
2019-03-22T18:30:14.757Z,101579.83
2019-03-22T18:33:18.444Z,101578.62
2019-03-22T18:36:21.895Z,101578.55
2019-03-22T18:39:25.276Z,101579.61
2019-03-22T18:42:28.660Z,101577.75
2019-03-22T18:45:32.073Z,101578.18
2019-03-22T18:48:35.445Z,101574.66
2019-03-22T18:51:39.770Z,101578.34
2019-03-22T18:54:43.204Z,101573.81
2019-03-22T18:57:46.625Z,101577.08
2019-03-22T19:00:50.026Z,101564.55
2019-03-22T19:03:54.728Z,101574.78
2019-03-22T19:06:58.102Z,101575.03
2019-03-22T19:10:01.489Z,101576.89
2019-03-22T19:13:04.867Z,101579.02
2019-03-22T19:16:08.270Z,101572.73
2019-03-22T19:19:11.707Z,101572.73
2019-03-22T19:22:15.134Z,101576.23
2019-03-22T19:25:18.510Z,101565.06
2019-03-22T19:28:21.894Z,101572.67
2019-03-22T19:31:25.319Z,101572.14
2019-03-22T19:34:28.729Z,101571.55
2019-03-22T19:37:32.122Z,101577.09
2019-03-22T19:40:35.501Z,101584.22
2019-03-22T19:43:39.942Z,101575.20
2019-03-22T19:46:43.325Z,101580.49
2019-03-22T19:49:46.728Z,101575.73
2019-03-22T19:52:50.418Z,101577.03
2019-03-22T19:55:53.876Z,101576.42
2019-03-22T19:58:57.248Z,101586.19
2019-03-22T20:02:00.645Z,101588.05
2019-03-22T20:05:06.593Z,101589.31
2019-03-22T20:08:13.746Z,101588.27
2019-03-22T20:11:15.685Z,101589.73
2019-03-22T20:14:19.066Z,101584.52
2019-03-22T20:17:22.451Z,101588.78
2019-03-22T20:20:25.914Z,101585.56
2019-03-22T20:24:35.379Z,101576.02
2019-03-22T20:27:40.433Z,101591.27
2019-03-22T20:30:44.997Z,101587.95
2019-03-22T20:33:49.768Z,101586.23
2019-03-22T20:36:54.791Z,101581.69
2019-03-22T20:39:59.295Z,101583.47
2019-03-22T20:43:04.198Z,101587.56
2019-03-22T20:46:09.315Z,101588.95
2019-03-22T20:49:14.037Z,101588.27
2019-03-22T20:52:18.479Z,101587.05
2019-03-22T20:55:22.878Z,101589.64
2019-03-22T20:58:27.405Z,101581.23
2019-03-22T21:01:32.056Z,101588.11
2019-03-22T21:04:36.643Z,101585.74
2019-03-22T21:07:42.410Z,101591.18
2019-03-22T21:10:46.978Z,101588.27
2019-03-22T21:13:51.782Z,101582.70
2019-03-22T21:16:56.445Z,101583.34
2019-03-22T21:20:00.915Z,101584.62
2019-03-22T21:23:05.676Z,101586.41
2019-03-22T21:26:10.290Z,101594.31
2019-03-22T21:29:15.261Z,101599.72
2019-03-22T21:32:19.788Z,101596.82
2019-03-22T21:35:24.280Z,101597.45
2019-03-22T21:38:28.885Z,101595.23
2019-03-22T21:41:33.567Z,101598.78
2019-03-22T21:44:38.469Z,101600.83
2019-03-22T21:47:43.127Z,101601.14
2019-03-22T21:50:48.973Z,101600.11
2019-03-22T21:53:53.474Z,101591.33
2019-03-22T21:56:58.361Z,101592.98
2019-03-22T22:00:03.314Z,101597.82
2019-03-22T22:03:07.860Z,101600.53
2019-03-22T22:06:12.711Z,101592.72
2019-03-22T22:09:18.164Z,101597.65
2019-03-22T22:12:22.994Z,101595.19
2019-03-22T22:15:28.445Z,101601.50
2019-03-22T22:18:36.082Z,101601.14
2019-03-22T22:21:41.177Z,101596.37
2019-03-22T22:24:45.700Z,101598.74
2019-03-22T22:27:50.512Z,101599.73
2019-03-22T22:30:55.042Z,101601.41
2019-03-22T22:34:00.434Z,101593.52
2019-03-22T22:37:04.815Z,101596.59
2019-03-22T22:40:09.700Z,101595.66
2019-03-22T22:43:14.936Z,101589.13
2019-03-22T22:46:19.718Z,101594.84
2019-03-22T22:49:24.293Z,101586.48
2019-03-22T22:52:28.761Z,101581.16
2019-03-22T22:55:33.246Z,101583.36
2019-03-22T22:58:37.893Z,101580.28
2019-03-22T23:01:42.821Z,101579.03
2019-03-22T23:04:47.203Z,101583.91
2019-03-22T23:07:51.782Z,101581.72
2019-03-22T23:10:56.554Z,101577.78
2019-03-22T23:14:01.055Z,101585.30
2019-03-22T23:17:05.594Z,101588.01
2019-03-22T23:20:11.149Z,101591.52
2019-03-22T23:23:16.159Z,101580.98
2019-03-22T23:26:20.585Z,101585.00
2019-03-22T23:29:24.988Z,101585.52
2019-03-22T23:32:29.424Z,101585.52
2019-03-22T23:35:33.853Z,101589.02
2019-03-22T23:38:38.734Z,101596.98
2019-03-22T23:41:43.143Z,101594.81
2019-03-22T23:44:49.654Z,101590.98
2019-03-22T23:47:54.301Z,101593.66
2019-03-22T23:51:00.116Z,101588.41
2019-03-22T23:54:04.599Z,101595.55
2019-03-22T23:57:09.098Z,101585.02
